Time;durP1;ratioP1;P1;durP2;ratioP2;P2;SDS_P1;SDS_P2;PMS_P1;PMS_P2;Temp;Humidity;BMP_temperature;BMP_pressure;BME280_temperature;BME280_humidity;BME280_pressure;Samples;Min_cycle;Max_cycle;Signal;HPM_P1;HPM_P2
2021/08/02 00:01:28;;;;;;;3.90;1.70;;;;;;;16.52;62.69;98614.28;3592095;40;20048;-68
2021/08/02 00:04:02;;;;;;;1.92;1.70;;;;;;;16.48;62.99;98615.78;3592415;40;20052;-68
2021/08/02 00:06:40;;;;;;;3.15;1.80;;;;;;;16.49;63.14;98606.75;3588285;40;20053;-68
2021/08/02 00:09:09;;;;;;;1.92;1.38;;;;;;;16.46;62.95;98609.91;3588721;40;20055;-68
2021/08/02 00:11:40;;;;;;;4.03;1.63;;;;;;;16.47;63.18;98606.97;3589128;40;20366;-68
2021/08/02 00:14:09;;;;;;;3.10;1.65;;;;;;;16.46;63.47;98609.91;3588914;40;20403;-68
2021/08/02 00:16:39;;;;;;;2.65;1.63;;;;;;;16.43;63.40;98605.84;3589871;40;20421;-68
2021/08/02 00:19:10;;;;;;;3.17;1.60;;;;;;;16.37;63.48;98614.78;3589509;40;20048;-68
2021/08/02 00:21:38;;;;;;;2.42;1.73;;;;;;;16.27;64.28;98610.03;3589683;40;20048;-68
2021/08/02 00:24:06;;;;;;;2.58;1.70;;;;;;;16.26;64.21;98604.94;3590700;40;20076;-68
2021/08/02 00:26:34;;;;;;;3.33;1.50;;;;;;;16.21;64.71;98600.31;3589659;40;20036;-67
2021/08/02 00:29:02;;;;;;;3.05;1.33;;;;;;;16.21;64.43;98599.50;3590449;40;20060;-67
2021/08/02 00:31:30;;;;;;;4.22;1.75;;;;;;;16.20;64.50;98604.00;3590252;40;20065;-67
2021/08/02 00:34:00;;;;;;;4.43;2.28;;;;;;;16.16;64.57;98600.19;3589529;40;20052;-67
2021/08/02 00:36:34;;;;;;;2.53;1.55;;;;;;;16.18;65.02;98598.09;3589840;40;20061;-68
2021/08/02 00:39:06;;;;;;;1.90;1.70;;;;;;;16.16;64.96;98600.19;3589841;40;20051;-68
2021/08/02 00:42:07;;;;;;;2.35;1.65;;;;;;;16.15;65.40;98601.22;3590217;40;20048;-68
2021/08/02 00:45:03;;;;;;;2.53;1.77;;;;;;;16.17;65.35;98606.34;3589393;40;20055;-67
2021/08/02 00:47:36;;;;;;;2.25;1.60;;;;;;;16.18;65.27;98608.78;3648481;22;20044;-71
2021/08/02 00:50:09;;;;;;;4.40;2.33;;;;;;;16.14;65.29;98599.63;3590518;40;20391;-70
2021/08/02 00:52:41;;;;;;;1.73;1.63;;;;;;;16.14;64.94;98599.63;3592996;40;20060;-70
2021/08/02 00:55:12;;;;;;;5.05;2.00;;;;;;;16.12;65.04;98607.03;3590965;40;20060;-70
2021/08/02 00:57:43;;;;;;;4.90;1.92;;;;;;;16.07;65.41;98609.59;3590410;40;20048;-70
2021/08/02 01:00:14;;;;;;;3.25;2.10;;;;;;;16.07;65.69;98610.38;3590431;40;20056;-70
2021/08/02 01:02:50;;;;;;;3.08;1.90;;;;;;;16.07;65.66;98613.06;3591744;40;20385;-70
2021/08/02 01:05:21;;;;;;;2.45;1.98;;;;;;;15.99;65.67;98612.59;3591930;40;20065;-70
2021/08/02 01:07:56;;;;;;;2.83;1.80;;;;;;;16.01;66.01;98619.34;3591182;40;20398;-70
2021/08/02 01:10:25;;;;;;;2.85;1.80;;;;;;;15.99;66.00;98616.06;3590727;40;20052;-70
2021/08/02 01:12:58;;;;;;;5.95;2.30;;;;;;;15.91;65.99;98607.63;3592016;40;20044;-70
2021/08/02 01:15:26;;;;;;;4.57;2.10;;;;;;;15.85;66.39;98612.03;3592464;40;20055;-70
2021/08/02 01:17:56;;;;;;;2.05;1.85;;;;;;;15.90;66.20;98622.81;3592671;40;20290;-70
2021/08/02 01:20:30;;;;;;;2.13;1.77;;;;;;;15.83;66.52;98616.75;3591584;40;20051;-70
2021/08/02 01:23:05;;;;;;;2.90;1.63;;;;;;;15.79;66.57;98616.41;3592441;40;20049;-69
2021/08/02 01:26:08;;;;;;;2.10;1.90;;;;;;;15.73;67.43;98620.00;3593388;40;20501;-71
2021/08/02 01:29:13;;;;;;;1.85;1.65;;;;;;;15.72;66.98;98618.41;3589521;40;20068;-70
2021/08/02 01:31:41;;;;;;;3.00;1.98;;;;;;;15.67;67.11;98620.91;3595811;40;20055;-69
2021/08/02 01:34:10;;;;;;;2.28;1.90;;;;;;;15.69;67.44;98626.03;3596346;40;20114;-71
2021/08/02 01:36:39;;;;;;;4.07;1.77;;;;;;;15.64;67.14;98621.38;3573102;40;20468;-69
2021/08/02 01:39:08;;;;;;;2.72;2.08;;;;;;;15.65;67.74;98623.00;3588623;40;20045;-70
2021/08/02 01:41:36;;;;;;;3.88;1.70;;;;;;;15.62;67.68;98628.75;3594290;40;20048;-70
2021/08/02 01:44:05;;;;;;;2.63;1.70;;;;;;;15.58;67.87;98628.41;3595073;40;20051;-69
2021/08/02 01:46:40;;;;;;;2.90;1.90;;;;;;;15.58;67.96;98630.25;3597085;40;20045;-70
2021/08/02 01:49:16;;;;;;;2.72;1.88;;;;;;;15.59;67.61;98627.38;3596664;40;20077;-70
2021/08/02 01:51:49;;;;;;;3.03;1.90;;;;;;;15.59;67.78;98629.22;3595840;40;20321;-70
2021/08/02 01:54:36;;;;;;;3.05;1.73;;;;;;;15.57;67.86;98626.78;3593517;40;20029;-70
2021/08/02 01:57:09;;;;;;;2.33;1.77;;;;;;;15.63;67.73;98626.91;3592366;40;20313;-70
2021/08/02 01:59:59;;;;;;;3.10;2.10;;;;;;;15.59;67.70;98627.38;3591733;40;20056;-70
2021/08/02 02:02:48;;;;;;;2.97;2.05;;;;;;;15.54;68.16;98637.09;3591920;40;20037;-69
2021/08/02 02:05:18;;;;;;;3.17;1.92;;;;;;;15.54;67.98;98637.91;3591864;40;20045;-70
2021/08/02 02:07:52;;;;;;;2.55;1.88;;;;;;;15.63;68.27;98634.91;3591117;40;20044;-70
2021/08/02 02:10:38;;;;;;;4.22;2.55;;;;;;;15.70;67.66;98630.31;3590143;40;20598;-71
2021/08/02 02:13:11;;;;;;;5.53;2.28;;;;;;;15.71;67.83;98640.72;3590567;40;20025;-71
2021/08/02 02:15:41;;;;;;;3.72;2.30;;;;;;;15.74;67.63;98642.94;3590697;40;20340;-71
2021/08/02 02:18:10;;;;;;;1.90;1.80;;;;;;;15.73;67.40;98629.84;3592399;40;20065;-71
2021/08/02 02:20:38;;;;;;;2.92;1.95;;;;;;;15.73;68.13;98629.84;3591495;40;20051;-71
2021/08/02 02:23:07;;;;;;;3.17;2.10;;;;;;;15.72;68.08;98634.38;3590604;40;20036;-71
2021/08/02 02:25:36;;;;;;;2.75;2.20;;;;;;;15.74;68.07;98626.94;3590833;40;20029;-70
2021/08/02 02:28:17;;;;;;;2.72;1.92;;;;;;;15.73;67.96;98629.84;3578821;40;20058;-70
2021/08/02 02:30:47;;;;;;;2.22;1.95;;;;;;;15.74;67.65;98623.47;3590143;40;20048;-70
2021/08/02 02:33:17;;;;;;;3.17;2.10;;;;;;;15.76;67.87;98619.56;3591133;40;20048;-70
2021/08/02 02:35:47;;;;;;;5.57;2.15;;;;;;;15.75;67.75;98622.44;3589491;40;20048;-70
2021/08/02 02:38:17;;;;;;;4.72;2.45;;;;;;;15.71;67.73;98624.75;3590201;40;20052;-70
2021/08/02 02:40:47;;;;;;;3.25;2.10;;;;;;;15.76;67.78;98619.56;3589559;40;20599;-70
2021/08/02 02:43:20;;;;;;;3.08;2.22;;;;;;;15.72;68.06;98623.72;3590593;40;20045;-70
2021/08/02 02:45:50;;;;;;;2.30;2.10;;;;;;;15.71;67.53;98623.94;3590224;40;20107;-70
2021/08/02 02:48:19;;;;;;;3.13;2.47;;;;;;;15.69;67.98;98624.19;3589253;40;20052;-71
2021/08/02 02:50:50;;;;;;;3.35;2.70;;;;;;;15.66;68.02;98619.28;3590270;40;20052;-70
2021/08/02 02:53:19;;;;;;;2.50;2.20;;;;;;;15.66;68.41;98621.16;3589220;40;20068;-71
2021/08/02 02:55:49;;;;;;;3.70;2.65;;;;;;;15.65;68.39;98631.00;3590131;40;20051;-71
2021/08/02 02:58:19;;;;;;;2.85;2.38;;;;;;;15.63;68.44;98626.91;3589295;40;20044;-70
2021/08/02 03:00:48;;;;;;;3.15;2.45;;;;;;;15.61;68.52;98630.63;3589556;40;20080;-70
2021/08/02 03:03:22;;;;;;;4.60;2.10;;;;;;;15.55;68.90;98628.03;3590559;40;20043;-71
2021/08/02 03:05:52;;;;;;;2.85;2.22;;;;;;;15.53;68.08;98638.13;3589486;40;20045;-71
2021/08/02 03:08:24;;;;;;;3.78;2.40;;;;;;;15.47;68.83;98637.22;3589634;40;20033;-71
2021/08/02 03:10:55;;;;;;;4.47;2.53;;;;;;;15.51;68.99;98634.88;3590711;40;20406;-71
2021/08/02 03:13:22;;;;;;;4.78;2.25;;;;;;;15.53;69.11;98638.13;3590352;40;20063;-70
2021/08/02 03:15:50;;;;;;;3.50;2.28;;;;;;;15.54;69.15;98647.75;3591150;40;20055;-69
2021/08/02 03:18:18;;;;;;;4.85;2.40;;;;;;;15.51;69.00;98650.84;3591296;40;20052;-69
2021/08/02 03:20:46;;;;;;;2.25;2.03;;;;;;;15.48;69.20;98651.34;3591331;40;20048;-71
2021/08/02 03:23:21;;;;;;;3.38;2.35;;;;;;;15.42;69.16;98649.56;3591886;40;20060;-71
2021/08/02 03:26:01;;;;;;;2.28;2.03;;;;;;;15.26;68.95;98646.50;3591390;40;20048;-71
2021/08/02 03:28:33;;;;;;;5.28;2.85;;;;;;;15.24;69.72;98648.59;3591765;40;20405;-71
2021/08/02 03:31:05;;;;;;;5.78;2.42;;;;;;;15.29;70.27;98648.72;3590882;40;20051;-70
2021/08/02 03:33:36;;;;;;;5.25;3.25;;;;;;;15.32;70.13;98650.94;3590254;40;20112;-71
2021/08/02 03:36:08;;;;;;;4.13;3.28;;;;;;;15.39;70.33;98653.50;3590329;40;20032;-70
2021/08/02 03:38:36;;;;;;;4.55;2.72;;;;;;;15.40;70.35;98649.81;3590788;40;20033;-71
2021/08/02 03:41:07;;;;;;;5.85;3.10;;;;;;;15.44;70.06;98656.31;3590619;40;20092;-71
2021/08/02 03:43:37;;;;;;;5.80;2.65;;;;;;;15.48;70.64;98656.66;3591168;40;20098;-71
2021/08/02 03:46:06;;;;;;;2.92;2.63;;;;;;;15.47;70.70;98663.00;3590335;40;20048;-71
2021/08/02 03:48:36;;;;;;;3.38;2.50;;;;;;;15.45;70.86;98670.44;3591347;40;20025;-71
2021/08/02 03:51:04;;;;;;;3.88;2.72;;;;;;;15.42;70.59;98671.69;3591785;40;20052;-71
2021/08/02 03:53:39;;;;;;;4.78;2.60;;;;;;;15.41;70.63;98674.59;3590255;40;20036;-71
2021/08/02 03:56:09;;;;;;;4.72;3.45;;;;;;;15.31;70.84;98672.47;3590120;40;20279;-71
2021/08/02 03:58:38;;;;;;;4.45;2.72;;;;;;;15.32;70.95;98682.88;3589962;40;20398;-71
2021/08/02 04:01:05;;;;;;;5.90;2.85;;;;;;;15.29;70.65;98672.69;3590996;40;20080;-71
2021/08/02 04:03:33;;;;;;;5.43;2.80;;;;;;;15.29;70.54;98671.88;3590185;40;20060;-70
2021/08/02 04:06:02;;;;;;;4.63;3.15;;;;;;;15.36;71.14;98672.59;3590593;40;20275;-71
2021/08/02 04:08:29;;;;;;;4.35;3.20;;;;;;;15.36;70.99;98678.75;3590482;40;20059;-71
2021/08/02 04:10:57;;;;;;;4.82;3.20;;;;;;;15.38;71.60;98678.50;3590788;40;20057;-71
2021/08/02 04:13:26;;;;;;;5.38;3.30;;;;;;;15.41;71.86;98674.59;3590517;40;20051;-71
2021/08/02 04:15:54;;;;;;;4.40;3.45;;;;;;;15.43;71.49;98683.97;3590875;40;20373;-70
2021/08/02 04:18:22;;;;;;;5.25;4.13;;;;;;;15.46;71.56;98680.03;3591005;40;20035;-71
2021/08/02 04:20:51;;;;;;;5.32;4.55;;;;;;;15.46;71.55;98688.03;3591218;40;20059;-71
2021/08/02 04:23:19;;;;;;;5.07;3.10;;;;;;;15.43;71.29;98691.97;3591300;40;20040;-71
2021/08/02 04:25:47;;;;;;;5.22;3.25;;;;;;;15.42;71.54;98698.31;3590912;40;20064;-71
2021/08/02 04:28:14;;;;;;;4.47;3.00;;;;;;;15.40;71.01;98695.09;3590928;40;20029;-71
2021/08/02 04:30:44;;;;;;;3.50;2.75;;;;;;;15.36;70.68;98696.56;3591785;40;20032;-71
2021/08/02 04:33:11;;;;;;;4.65;2.85;;;;;;;15.32;71.05;98695.41;3591014;40;20048;-71
2021/08/02 04:35:41;;;;;;;3.38;2.90;;;;;;;15.35;71.12;98698.44;3591186;40;20055;-71
2021/08/02 04:38:09;;;;;;;7.40;2.72;;;;;;;15.42;70.60;98694.84;3590644;40;20041;-71
2021/08/02 04:40:36;;;;;;;4.60;2.95;;;;;;;15.51;70.60;98696.16;3592018;40;20029;-71
2021/08/02 04:43:05;;;;;;;4.68;3.17;;;;;;;15.53;70.20;98702.06;3592172;40;20336;-70
2021/08/02 04:45:32;;;;;;;2.92;2.22;;;;;;;15.53;69.96;98702.06;3590540;40;20080;-70
2021/08/02 04:48:04;;;;;;;6.57;3.00;;;;;;;15.60;69.72;98698.28;3590590;40;20040;-70
2021/08/02 04:50:32;;;;;;;9.95;3.28;;;;;;;15.61;69.71;98696.41;3591543;40;20048;-70
2021/08/02 04:52:59;;;;;;;5.60;3.15;;;;;;;15.65;69.94;98689.63;3591241;40;20049;-70
2021/08/02 04:55:27;;;;;;;5.15;3.65;;;;;;;15.70;69.87;98692.41;3590088;40;20064;-70
2021/08/02 04:57:55;;;;;;;4.80;3.13;;;;;;;15.75;69.31;98689.06;3590248;40;20117;-70
2021/08/02 05:00:29;;;;;;;8.05;4.47;;;;;;;15.80;69.34;98690.00;3591249;40;20405;-69
2021/08/02 05:03:03;;;;;;;6.50;3.83;;;;;;;15.82;69.39;98695.09;3592500;40;20025;-71
2021/08/02 05:05:30;;;;;;;5.93;3.70;;;;;;;15.83;69.21;98692.19;3591544;40;20664;-70
2021/08/02 05:07:58;;;;;;;7.40;3.20;;;;;;;15.82;69.37;98685.25;3591434;40;20028;-71
2021/08/02 05:10:26;;;;;;;6.53;3.42;;;;;;;15.83;69.64;98686.88;3590410;40;20086;-71
2021/08/02 05:12:54;;;;;;;4.30;3.50;;;;;;;15.87;69.89;98683.75;3591318;40;20064;-71
2021/08/02 05:15:22;;;;;;;4.72;3.30;;;;;;;15.92;69.92;98692.72;3591561;40;20313;-70
2021/08/02 05:17:50;;;;;;;5.75;3.70;;;;;;;15.97;69.95;98695.50;3590270;40;20055;-70
2021/08/02 05:20:21;;;;;;;5.75;3.85;;;;;;;15.95;70.11;98688.75;3591992;40;20055;-71
2021/08/02 05:22:50;;;;;;;5.38;3.75;;;;;;;15.92;70.07;98690.03;3592101;40;20065;-71
2021/08/02 05:25:18;;;;;;;4.47;3.97;;;;;;;15.95;70.36;98681.56;3590677;40;20048;-71
2021/08/02 05:27:51;;;;;;;5.30;3.45;;;;;;;15.89;70.66;98690.50;3590540;40;20433;-71
2021/08/02 05:30:19;;;;;;;4.47;3.90;;;;;;;15.93;70.59;98689.00;3591986;40;20044;-71
2021/08/02 05:32:47;;;;;;;4.38;3.80;;;;;;;15.99;70.27;98689.91;3592145;40;20067;-70
2021/08/02 05:35:16;;;;;;;4.63;4.00;;;;;;;16.02;70.48;98695.59;3591957;40;20040;-70
2021/08/02 05:37:45;;;;;;;6.28;3.53;;;;;;;16.06;70.58;98696.75;3592108;40;20053;-71
2021/08/02 05:40:14;;;;;;;5.10;3.63;;;;;;;16.07;70.43;98690.38;3591045;40;20057;-69
2021/08/02 05:42:42;;;;;;;7.55;3.70;;;;;;;16.09;70.22;98698.97;3591832;40;20063;-69
2021/08/02 05:45:11;;;;;;;5.25;3.58;;;;;;;16.04;70.21;98698.03;3591152;40;20099;-70
2021/08/02 05:47:39;;;;;;;6.35;4.45;;;;;;;16.08;70.34;98694.69;3594578;40;20052;-69
2021/08/02 05:50:08;;;;;;;7.57;4.32;;;;;;;16.11;70.11;98693.41;3596519;40;20044;-70
2021/08/02 05:52:36;;;;;;;10.23;4.28;;;;;;;16.12;70.15;98696.88;3596254;40;20065;-70
2021/08/02 05:55:07;;;;;;;5.28;4.40;;;;;;;16.20;70.11;98699.19;3596476;40;20052;-72
2021/08/02 05:57:34;;;;;;;5.32;4.75;;;;;;;16.26;69.99;98698.28;3596480;40;20048;-70
2021/08/02 06:00:04;;;;;;;6.72;4.80;;;;;;;16.30;69.97;98702.94;3596593;40;20052;-70
2021/08/02 06:02:39;;;;;;;6.60;4.85;;;;;;;16.33;70.06;98699.81;3596496;40;20040;-70
2021/08/02 06:05:09;;;;;;;4.45;4.07;;;;;;;16.32;69.93;98702.69;3596402;40;20149;-70
2021/08/02 06:07:41;;;;;;;6.03;4.78;;;;;;;16.39;69.63;98695.38;3595032;40;20434;-70
2021/08/02 06:10:11;;;;;;;5.07;4.57;;;;;;;16.50;69.49;98704.44;3593436;40;20044;-70
2021/08/02 06:12:40;;;;;;;5.05;4.55;;;;;;;16.65;69.70;98711.94;3590036;40;20410;-69
2021/08/02 06:15:10;;;;;;;8.50;5.45;;;;;;;16.69;69.22;98710.44;3591238;40;20064;-70
2021/08/02 06:17:38;;;;;;;6.00;4.72;;;;;;;16.70;69.14;98717.41;3591492;40;20048;-69
2021/08/02 06:20:07;;;;;;;7.70;5.20;;;;;;;16.69;68.89;98718.44;3590351;40;20397;-70
2021/08/02 06:22:35;;;;;;;5.38;4.43;;;;;;;16.77;68.84;98710.09;3590451;40;20052;-70
2021/08/02 06:25:04;;;;;;;11.07;5.40;;;;;;;16.73;68.42;98722.28;3590638;40;20056;-70
2021/08/02 06:27:33;;;;;;;6.60;5.38;;;;;;;16.73;68.76;98719.63;3589394;40;20051;-70
2021/08/02 06:30:05;;;;;;;7.00;6.30;;;;;;;16.75;69.10;98717.56;3590115;40;20376;-70
2021/08/02 06:32:33;;;;;;;6.07;5.47;;;;;;;16.71;69.12;98714.50;3590518;40;20386;-70
2021/08/02 06:35:01;;;;;;;8.60;6.07;;;;;;;16.74;69.28;98722.09;3590254;40;20084;-70
2021/08/02 06:37:28;;;;;;;7.78;6.90;;;;;;;16.72;69.62;98724.13;3590031;40;20053;-70
2021/08/02 06:39:56;;;;;;;7.07;6.47;;;;;;;16.72;69.56;98729.47;3589906;40;20325;-70
2021/08/02 06:42:24;;;;;;;7.05;6.35;;;;;;;16.60;70.00;98715.31;3589561;40;20047;-70
2021/08/02 06:44:54;;;;;;;7.15;6.45;;;;;;;16.57;69.82;98711.28;3590238;40;20434;-70
2021/08/02 06:47:22;;;;;;;7.32;6.60;;;;;;;16.60;70.22;98715.31;3648992;22;20042;-63
2021/08/02 06:49:50;;;;;;;8.13;7.22;;;;;;;16.64;69.81;98719.16;3590219;40;20048;-63
2021/08/02 06:52:18;;;;;;;9.45;5.97;;;;;;;16.63;69.67;98720.19;3589978;40;20040;-63
2021/08/02 06:54:46;;;;;;;8.45;6.82;;;;;;;16.57;69.97;98721.94;3590090;40;20060;-63
2021/08/02 06:57:14;;;;;;;7.90;7.10;;;;;;;16.63;70.11;98725.53;3589026;40;20097;-63
2021/08/02 06:59:42;;;;;;;7.65;6.65;;;;;;;16.67;69.55;98732.03;3589148;40;20076;-63
2021/08/02 07:02:12;;;;;;;7.82;6.80;;;;;;;16.80;69.24;98736.34;3590080;40;20088;-65
2021/08/02 07:04:40;;;;;;;7.82;7.03;;;;;;;16.76;69.24;98735.19;3589636;40;20084;-63
2021/08/02 07:07:07;;;;;;;6.68;5.70;;;;;;;16.83;69.29;98742.03;3589345;40;20095;-63
2021/08/02 07:09:36;;;;;;;6.57;5.97;;;;;;;16.91;69.17;98750.72;3589633;40;20401;-63
2021/08/02 07:12:05;;;;;;;7.47;6.38;;;;;;;17.03;68.88;98748.84;3588727;40;20309;-63
2021/08/02 07:14:33;;;;;;;6.10;5.60;;;;;;;17.12;68.66;98747.44;3588560;40;20055;-63
2021/08/02 07:17:01;;;;;;;6.57;5.97;;;;;;;17.28;68.34;98744.00;3589115;40;20399;-63
2021/08/02 07:19:30;;;;;;;7.78;6.18;;;;;;;17.40;67.85;98754.66;3589596;40;20040;-63
2021/08/02 07:21:58;;;;;;;6.35;5.75;;;;;;;17.42;68.14;98749.88;3589791;40;20040;-63
2021/08/02 07:24:26;;;;;;;7.15;6.43;;;;;;;17.52;67.67;98746.59;3588930;40;20048;-63
2021/08/02 07:26:54;;;;;;;9.95;6.18;;;;;;;17.58;67.54;98743.78;3589623;40;20052;-63
2021/08/02 07:29:22;;;;;;;7.40;6.80;;;;;;;17.74;66.93;98739.53;3588062;40;20060;-63
2021/08/02 07:31:50;;;;;;;7.28;6.57;;;;;;;17.69;67.17;98742.09;3589724;40;20048;-63
2021/08/02 07:34:18;;;;;;;8.18;5.80;;;;;;;17.69;66.81;98744.78;3589547;40;20084;-63
2021/08/02 07:36:47;;;;;;;7.25;6.45;;;;;;;17.75;66.81;98754.53;3595022;40;20048;-67
2021/08/02 07:39:15;;;;;;;12.60;6.15;;;;;;;17.70;66.72;98754.41;3591077;40;20048;-63
2021/08/02 07:41:47;;;;;;;6.93;6.18;;;;;;;17.73;66.61;98745.91;3589591;40;20401;-63
2021/08/02 07:44:14;;;;;;;7.53;6.00;;;;;;;17.83;66.77;98745.31;3588940;40;20049;-64
2021/08/02 07:46:42;;;;;;;8.75;6.05;;;;;;;17.94;66.48;98748.97;3588711;40;20298;-64
2021/08/02 07:49:10;;;;;;;9.07;6.07;;;;;;;18.00;66.00;98753.34;3590111;40;20051;-64
2021/08/02 07:51:38;;;;;;;7.72;6.20;;;;;;;17.90;66.47;98750.50;3591898;40;20060;-64
2021/08/02 07:54:08;;;;;;;7.82;6.00;;;;;;;17.92;66.22;98743.03;3592276;40;20421;-63
2021/08/02 07:56:36;;;;;;;12.02;6.03;;;;;;;17.97;65.92;98751.19;3589617;40;20063;-64
2021/08/02 07:59:04;;;;;;;8.27;5.93;;;;;;;18.03;65.62;98752.88;3587465;40;20068;-64
2021/08/02 08:01:32;;;;;;;7.45;6.20;;;;;;;17.98;65.91;98758.13;3589861;40;20546;-64
2021/08/02 08:04:00;;;;;;;8.88;7.03;;;;;;;17.85;65.81;98759.25;3590517;40;20048;-64
2021/08/02 08:06:28;;;;;;;6.65;6.05;;;;;;;17.75;66.15;98764.41;3590410;40;20049;-64
2021/08/02 08:08:56;;;;;;;7.00;6.30;;;;;;;17.77;66.62;98765.81;3590171;40;20048;-64
2021/08/02 08:11:25;;;;;;;7.07;6.43;;;;;;;17.81;66.11;98763.47;3589047;40;20049;-64
2021/08/02 08:13:53;;;;;;;8.10;6.75;;;;;;;17.86;66.27;98765.41;3588877;40;20048;-63
2021/08/02 08:16:21;;;;;;;6.82;6.22;;;;;;;17.83;66.20;98772.84;3589051;40;20076;-63
2021/08/02 08:18:49;;;;;;;6.50;5.95;;;;;;;17.96;65.64;98758.41;3587863;40;20405;-63
2021/08/02 08:21:17;;;;;;;6.40;5.90;;;;;;;18.19;65.60;98762.78;3588710;40;20060;-63
2021/08/02 08:23:44;;;;;;;8.00;5.90;;;;;;;18.31;65.06;98766.19;3588760;40;20071;-63
2021/08/02 08:26:12;;;;;;;5.85;5.35;;;;;;;18.44;64.42;98758.88;3592409;40;20052;-63
2021/08/02 08:28:41;;;;;;;5.72;5.30;;;;;;;18.64;64.15;98759.19;3592568;40;20051;-63
2021/08/02 08:31:09;;;;;;;7.47;5.45;;;;;;;18.89;63.56;98760.63;3588931;40;20575;-63
2021/08/02 08:33:37;;;;;;;13.88;5.50;;;;;;;19.06;62.95;98756.00;3588682;40;20056;-63
2021/08/02 08:36:05;;;;;;;7.28;5.25;;;;;;;19.27;62.22;98755.22;3588540;40;20460;-64
2021/08/02 08:38:32;;;;;;;5.68;5.18;;;;;;;19.28;61.86;98756.84;3587022;40;20051;-64
2021/08/02 08:41:00;;;;;;;5.85;4.65;;;;;;;19.46;61.59;98757.56;3588843;40;20044;-63
2021/08/02 08:43:28;;;;;;;5.50;4.65;;;;;;;19.55;60.91;98754.19;3588311;40;20051;-64
2021/08/02 08:45:57;;;;;;;4.72;4.32;;;;;;;19.69;60.23;98751.94;3588470;40;20048;-63
2021/08/02 08:48:26;;;;;;;8.05;4.60;;;;;;;19.78;59.54;98753.09;3588057;40;20045;-63
2021/08/02 08:50:54;;;;;;;4.65;4.25;;;;;;;19.83;59.05;98755.03;3587429;40;20559;-64
2021/08/02 08:53:22;;;;;;;4.85;4.07;;;;;;;19.85;58.68;98752.91;3588338;40;20052;-64
2021/08/02 08:55:50;;;;;;;4.65;3.80;;;;;;;19.82;58.81;98752.59;3590829;40;20417;-64
2021/08/02 08:58:17;;;;;;;6.88;4.75;;;;;;;19.93;58.38;98748.97;3591881;40;20302;-63
2021/08/02 09:00:45;;;;;;;5.53;4.38;;;;;;;19.91;57.30;98759.13;3590945;40;20040;-63
2021/08/02 09:03:16;;;;;;;4.70;4.20;;;;;;;20.11;57.15;98751.25;3590821;40;20095;-63
2021/08/02 09:05:46;;;;;;;3.65;3.35;;;;;;;20.31;56.33;98747.13;3590688;40;20041;-63
2021/08/02 09:08:22;;;;;;;4.03;3.63;;;;;;;20.14;56.03;98748.06;3594249;40;20048;-63
2021/08/02 09:10:56;;;;;;;4.78;3.80;;;;;;;20.00;56.47;98749.53;3589844;40;20048;-63
2021/08/02 09:13:30;;;;;;;5.00;3.70;;;;;;;19.79;56.76;98748.53;3589284;40;20317;-62
2021/08/02 09:15:58;;;;;;;4.07;3.65;;;;;;;19.73;56.83;98744.22;3589932;40;20052;-62
2021/08/02 09:18:27;;;;;;;4.22;3.83;;;;;;;19.69;57.05;98751.94;3589405;40;20382;-63
2021/08/02 09:21:02;;;;;;;3.45;3.15;;;;;;;19.65;56.71;98750.84;3588539;40;20048;-64
2021/08/02 09:23:30;;;;;;;3.80;2.65;;;;;;;19.68;56.31;98752.22;3589528;40;20048;-64
2021/08/02 09:26:01;;;;;;;3.25;2.80;;;;;;;19.70;56.15;98745.53;3589446;40;20078;-63
2021/08/02 09:28:30;;;;;;;3.58;2.88;;;;;;;19.90;55.90;98752.16;3590957;40;20067;-62
2021/08/02 09:31:01;;;;;;;3.85;2.75;;;;;;;19.93;55.74;98749.78;3589441;40;20064;-63
2021/08/02 09:33:43;;;;;;;3.00;2.70;;;;;;;19.99;55.53;98746.06;3590243;40;20046;-63
2021/08/02 09:36:12;;;;;;;3.38;3.08;;;;;;;20.22;55.39;98744.09;3589056;40;20112;-64
2021/08/02 09:38:39;;;;;;;3.08;2.67;;;;;;;20.59;54.21;98740.63;3590169;40;20079;-63
2021/08/02 09:41:07;;;;;;;3.22;2.30;;;;;;;20.75;53.04;98742.34;3590605;40;20080;-63
2021/08/02 09:43:35;;;;;;;3.10;2.30;;;;;;;21.06;51.92;98732.53;3590579;40;20029;-63
2021/08/02 09:46:08;;;;;;;2.42;2.20;;;;;;;21.18;51.79;98737.69;3590390;40;20143;-63
2021/08/02 09:48:40;;;;;;;3.20;2.90;;;;;;;21.32;51.63;98729.97;3590313;40;20105;-63
2021/08/02 09:51:10;;;;;;;4.07;2.65;;;;;;;21.44;50.80;98723.31;3590306;40;20138;-63
2021/08/02 09:53:39;;;;;;;4.05;3.05;;;;;;;21.45;50.90;98722.22;3590404;40;20051;-63
2021/08/02 09:56:10;;;;;;;4.45;3.08;;;;;;;21.64;50.77;98722.53;3590098;40;20060;-63
2021/08/02 09:58:41;;;;;;;3.97;3.33;;;;;;;21.93;49.89;98711.28;3589677;40;20303;-63
2021/08/02 10:01:09;;;;;;;4.65;3.60;;;;;;;21.88;49.35;98705.88;3590395;40;20130;-63
2021/08/02 10:03:39;;;;;;;4.45;3.33;;;;;;;21.72;49.63;98708.56;3590088;40;20052;-64
2021/08/02 10:06:08;;;;;;;3.40;3.10;;;;;;;21.57;49.66;98715.81;3589854;40;20549;-64
2021/08/02 10:08:39;;;;;;;9.57;5.65;;;;;;;21.39;49.83;98711.72;3589845;40;20056;-64
2021/08/02 10:11:08;;;;;;;3.47;3.17;;;;;;;21.21;50.04;98702.22;3590265;40;20080;-64
2021/08/02 10:13:40;;;;;;;6.13;4.65;;;;;;;21.00;50.89;98712.09;3589458;40;20028;-65
2021/08/02 10:16:11;;;;;;;8.15;4.85;;;;;;;21.26;51.19;98710.31;3589578;40;20054;-64
2021/08/02 10:18:41;;;;;;;3.78;2.92;;;;;;;21.69;50.18;98705.59;3589056;40;20079;-63
2021/08/02 10:21:11;;;;;;;2.42;1.95;;;;;;;22.08;49.07;98705.06;3589465;40;20096;-64
2021/08/02 10:23:40;;;;;;;3.80;2.53;;;;;;;22.16;48.49;98696.47;3590110;40;20051;-64
2021/08/02 10:26:20;;;;;;;3.38;2.97;;;;;;;22.36;47.85;98693.75;3591369;40;20126;-64
2021/08/02 10:28:56;;;;;;;2.35;2.15;;;;;;;22.52;47.66;98697.22;3590990;40;20045;-64
2021/08/02 10:31:26;;;;;;;3.20;2.05;;;;;;;22.59;46.72;98686.97;3590582;40;20080;-64
2021/08/02 10:34:15;;;;;;;2.38;2.10;;;;;;;22.53;47.00;98688.06;3591413;40;20063;-63
2021/08/02 10:36:44;;;;;;;3.08;2.10;;;;;;;22.79;46.76;98685.31;3590879;40;20052;-64
2021/08/02 10:39:22;;;;;;;2.50;2.30;;;;;;;22.73;46.83;98679.91;3590766;40;20064;-65
2021/08/02 10:41:50;;;;;;;4.82;3.00;;;;;;;22.58;46.66;98687.25;3590972;40;20330;-63
2021/08/02 10:44:20;;;;;;;4.25;2.85;;;;;;;22.71;47.10;98689.38;3593095;40;20424;-67
2021/08/02 10:46:48;;;;;;;5.70;4.38;;;;;;;22.82;46.51;98677.47;3593383;40;20033;-67
2021/08/02 10:49:19;;;;;;;3.83;3.50;;;;;;;22.94;46.31;98672.63;3592452;40;20059;-65
2021/08/02 10:51:49;;;;;;;3.00;2.75;;;;;;;22.92;45.88;98672.06;3591119;40;20045;-63
2021/08/02 10:54:20;;;;;;;3.00;2.80;;;;;;;23.10;45.32;98669.81;3591338;40;20098;-65
2021/08/02 10:56:49;;;;;;;3.30;2.88;;;;;;;23.34;44.99;98668.06;3590380;40;20052;-65
2021/08/02 10:59:20;;;;;;;4.82;3.65;;;;;;;23.62;44.13;98663.84;3592398;40;20047;-64
2021/08/02 11:01:49;;;;;;;3.05;2.35;;;;;;;23.79;43.73;98665.38;3592706;40;20045;-65
2021/08/02 11:04:21;;;;;;;4.35;2.05;;;;;;;24.06;43.23;98662.19;3594307;40;20093;-63
2021/08/02 11:06:54;;;;;;;2.05;1.50;;;;;;;24.22;42.21;98661.75;3594625;40;20135;-67
2021/08/02 11:09:28;;;;;;;3.13;1.40;;;;;;;24.19;41.95;98661.50;3593839;40;20059;-65
2021/08/02 11:12:04;;;;;;;1.58;1.45;;;;;;;24.19;41.98;98653.41;3594866;40;20409;-66
2021/08/02 11:14:32;;;;;;;1.35;1.15;;;;;;;24.32;41.98;98657.31;3594512;40;20409;-64
2021/08/02 11:17:02;;;;;;;1.70;1.55;;;;;;;24.41;41.99;98648.34;3593363;40;20629;-65
2021/08/02 11:19:32;;;;;;;4.22;2.05;;;;;;;24.63;41.31;98639.72;3594220;40;20052;-66
2021/08/02 11:22:04;;;;;;;1.73;1.40;;;;;;;24.55;41.76;98653.88;3593381;40;20024;-65
2021/08/02 11:24:34;;;;;;;2.25;1.90;;;;;;;24.50;41.60;98648.53;3593502;40;20332;-66
2021/08/02 11:27:04;;;;;;;1.90;1.60;;;;;;;24.12;42.06;98642.91;3590759;40;20064;-65
2021/08/02 11:29:34;;;;;;;2.30;1.55;;;;;;;24.28;42.17;98642.78;3590276;40;20137;-65
2021/08/02 11:32:05;;;;;;;1.95;1.52;;;;;;;24.36;41.87;98636.75;3590749;40;20052;-66
2021/08/02 11:34:37;;;;;;;2.97;1.38;;;;;;;24.59;41.38;98643.28;3591613;40;20060;-65
2021/08/02 11:37:06;;;;;;;8.77;1.63;;;;;;;24.63;41.32;98639.72;3590324;40;20673;-65
2021/08/02 11:39:36;;;;;;;6.15;1.70;;;;;;;24.65;41.11;98634.81;3589542;40;20279;-65
2021/08/02 11:42:07;;;;;;;2.45;1.30;;;;;;;24.53;40.15;98644.41;3589550;40;20048;-65
2021/08/02 11:44:36;;;;;;;2.10;1.33;;;;;;;24.18;40.89;98649.09;3589551;40;20048;-66
2021/08/02 11:47:07;;;;;;;3.78;1.73;;;;;;;23.72;41.85;98658.41;3590011;40;20081;-65
2021/08/02 11:49:39;;;;;;;1.40;1.30;;;;;;;23.21;43.17;98677.59;3589613;40;20036;-66